Time;durP1;ratioP1;P1;durP2;ratioP2;P2;SDS_P1;SDS_P2;PMS_P1;PMS_P2;Temp;Humidity;BMP_temperature;BMP_pressure;BME280_temperature;BME280_humidity;BME280_pressure;Samples;Min_cycle;Max_cycle;Signal;HPM_P1;HPM_P2
2022/03/04 00:01:40;;;;;;;1.87;1.47;;;;;;;-0.38;65.18;96298.59;5037001;28;20237;-72
2022/03/04 00:04:09;;;;;;;5.73;2.70;;;;;;;-0.18;65.08;96297.16;5036112;28;20206;-73
2022/03/04 00:06:35;;;;;;;4.20;2.53;;;;;;;-0.39;65.83;96298.72;5036639;28;20216;-73
2022/03/04 00:09:02;;;;;;;7.00;2.63;;;;;;;-0.37;65.81;96302.00;5036005;28;20680;-73
2022/03/04 00:11:29;;;;;;;6.57;3.70;;;;;;;-0.29;66.38;96294.53;5036665;28;20201;-73
2022/03/04 00:13:55;;;;;;;2.90;2.67;;;;;;;-0.33;66.64;96296.50;5035665;28;20216;-72
2022/03/04 00:16:22;;;;;;;6.43;1.73;;;;;;;-0.38;66.40;96296.00;5037275;28;20210;-73
2022/03/04 00:19:06;;;;;;;4.97;2.60;;;;;;;-0.30;65.50;96300.66;5036304;28;20209;-73
2022/03/04 00:21:34;;;;;;;4.23;2.27;;;;;;;-0.16;66.34;96298.69;5035941;28;20221;-73
2022/03/04 00:24:01;;;;;;;4.13;2.10;;;;;;;-0.35;66.84;96300.97;5036158;28;20204;-73
2022/03/04 00:26:28;;;;;;;2.60;2.23;;;;;;;-0.37;66.49;96296.81;5036821;28;20208;-73
2022/03/04 00:28:54;;;;;;;2.10;1.90;;;;;;;-0.29;66.89;96299.72;5036189;28;20213;-72
2022/03/04 00:31:20;;;;;;;2.27;2.07;;;;;;;-0.45;66.72;96305.13;5036205;28;20208;-73
2022/03/04 00:33:47;;;;;;;3.80;2.57;;;;;;;-0.41;66.42;96303.16;5035040;28;20515;-73
2022/03/04 00:36:13;;;;;;;2.60;2.23;;;;;;;-0.45;66.42;96299.16;5036024;28;20212;-73
2022/03/04 00:38:41;;;;;;;2.83;1.67;;;;;;;-0.52;66.75;96303.13;5036360;28;20212;-73
2022/03/04 00:41:08;;;;;;;8.33;2.43;;;;;;;-0.67;66.63;96304.19;5036124;28;20202;-72
2022/03/04 00:43:35;;;;;;;7.17;4.30;;;;;;;-0.56;66.61;96305.09;5035361;28;20228;-72
2022/03/04 00:46:01;;;;;;;7.80;2.50;;;;;;;-0.56;66.35;96306.84;5036079;28;20205;-72
2022/03/04 00:48:28;;;;;;;3.37;2.23;;;;;;;-0.61;66.64;96298.59;5035562;28;20554;-72
2022/03/04 00:50:54;;;;;;;5.33;2.07;;;;;;;-0.73;66.89;96307.22;5036249;28;20251;-72
2022/03/04 00:53:21;;;;;;;5.00;3.60;;;;;;;-0.69;66.15;96311.22;5035734;28;20217;-72
2022/03/04 00:55:48;;;;;;;5.33;2.43;;;;;;;-0.52;66.24;96305.72;5035460;28;20669;-72
2022/03/04 00:58:15;;;;;;;4.73;2.77;;;;;;;-0.62;66.49;96310.69;5036477;28;20471;-74
2022/03/04 01:00:41;;;;;;;2.77;2.57;;;;;;;-0.63;66.64;96315.97;5036930;28;20201;-74
2022/03/04 01:03:08;;;;;;;4.13;2.27;;;;;;;-0.84;66.75;96317.50;5034355;28;20225;-74
2022/03/04 01:05:34;;;;;;;5.27;2.47;;;;;;;-0.79;65.76;96318.00;5035876;28;20549;-75
2022/03/04 01:08:01;;;;;;;5.17;2.40;;;;;;;-0.84;66.72;96314.06;5036185;28;20209;-72
2022/03/04 01:10:28;;;;;;;3.20;2.27;;;;;;;-0.99;67.00;96312.56;5036231;28;20208;-72
2022/03/04 01:12:55;;;;;;;2.23;1.87;;;;;;;-0.66;65.67;96311.03;5034776;28;20595;-72
2022/03/04 01:15:22;;;;;;;5.97;2.93;;;;;;;-1.01;66.65;96315.22;5036513;28;20197;-73
2022/03/04 01:17:49;;;;;;;3.77;1.70;;;;;;;-1.07;67.02;96310.50;5035984;28;20236;-73
2022/03/04 01:20:15;;;;;;;4.40;1.93;;;;;;;-0.93;65.98;96305.22;5035630;28;20212;-75
2022/03/04 01:22:42;;;;;;;6.13;2.67;;;;;;;-0.83;66.72;96305.38;5035611;28;20232;-74
2022/03/04 01:25:10;;;;;;;1.73;1.40;;;;;;;-0.73;66.17;96301.22;5035723;28;20239;-74
2022/03/04 01:27:36;;;;;;;3.23;2.43;;;;;;;-0.90;66.35;96304.97;5035338;28;20212;-73
2022/03/04 01:30:05;;;;;;;4.57;3.13;;;;;;;-0.79;66.33;96294.72;5035855;28;20487;-74
2022/03/04 01:32:31;;;;;;;1.20;1.10;;;;;;;-0.92;66.81;96304.25;5034466;28;20220;-73
2022/03/04 01:34:58;;;;;;;2.50;2.30;;;;;;;-0.87;67.41;96301.34;5035685;28;20209;-73
2022/03/04 01:37:25;;;;;;;3.30;1.83;;;;;;;-0.83;67.09;96297.63;5035792;28;20214;-74
2022/03/04 01:39:52;;;;;;;5.20;2.33;;;;;;;-0.75;67.02;96301.34;5035710;28;20209;-74
2022/03/04 01:42:19;;;;;;;3.83;3.33;;;;;;;-0.87;67.07;96299.59;5035207;28;20232;-74
2022/03/04 01:44:46;;;;;;;6.83;2.63;;;;;;;-0.64;66.94;96298.78;5035493;28;20212;-74
2022/03/04 01:47:14;;;;;;;2.67;2.20;;;;;;;-0.60;66.41;96288.13;5035602;28;20205;-73
2022/03/04 01:49:41;;;;;;;1.77;1.67;;;;;;;-0.76;66.29;96291.91;5035492;28;20209;-74
2022/03/04 01:52:08;;;;;;;2.03;1.83;;;;;;;-0.81;65.85;96282.84;5035199;28;20233;-74
2022/03/04 01:54:36;;;;;;;2.87;2.03;;;;;;;-0.94;66.99;96290.63;5035760;28;20231;-74
2022/03/04 01:57:03;;;;;;;3.03;2.10;;;;;;;-0.98;66.31;96283.16;5035576;28;20205;-74
2022/03/04 01:59:29;;;;;;;2.00;1.67;;;;;;;-1.00;66.63;96279.88;5034976;28;20204;-74
2022/03/04 02:01:56;;;;;;;3.60;2.70;;;;;;;-1.10;66.46;96281.44;5035812;28;20756;-74
2022/03/04 02:04:26;;;;;;;6.43;2.30;;;;;;;-1.07;66.82;96274.31;5034352;28;20205;-73
2022/03/04 02:06:52;;;;;;;4.90;2.60;;;;;;;-1.19;67.28;96285.47;5035175;28;20205;-74
2022/03/04 02:09:19;;;;;;;4.73;2.93;;;;;;;-1.09;66.75;96289.09;5035333;28;20201;-75
2022/03/04 02:11:48;;;;;;;3.33;2.87;;;;;;;-1.08;67.33;96282.19;5035722;28;20217;-74
2022/03/04 02:14:15;;;;;;;8.20;2.50;;;;;;;-1.02;67.12;96282.56;5036194;28;20211;-74
2022/03/04 02:16:44;;;;;;;6.70;2.50;;;;;;;-0.98;67.05;96286.59;5038728;28;20205;-72
2022/03/04 02:19:11;;;;;;;3.40;2.33;;;;;;;-1.19;67.77;96284.66;5039056;28;20578;-74
2022/03/04 02:21:44;;;;;;;2.50;2.30;;;;;;;-0.86;67.06;96280.56;5038735;28;20240;-74
2022/03/04 02:24:12;;;;;;;5.93;2.67;;;;;;;-0.97;67.21;96280.50;5037903;28;20957;-72
2022/03/04 02:26:38;;;;;;;2.07;1.97;;;;;;;-1.15;67.80;96283.50;5038714;28;20205;-73
2022/03/04 02:29:05;;;;;;;5.53;2.50;;;;;;;-1.14;67.85;96283.41;5039101;28;20212;-73
2022/03/04 02:31:32;;;;;;;2.37;1.60;;;;;;;-1.15;68.09;96274.00;5038496;28;20217;-74
2022/03/04 02:33:58;;;;;;;1.10;1.00;;;;;;;-1.17;68.35;96268.13;5037897;28;20197;-74
2022/03/04 02:36:25;;;;;;;2.47;2.17;;;;;;;-1.23;68.21;96274.63;5038546;28;20209;-74
2022/03/04 02:38:51;;;;;;;5.37;1.83;;;;;;;-1.19;68.30;96269.16;5038210;28;20216;-74
2022/03/04 02:41:19;;;;;;;4.50;2.03;;;;;;;-1.02;68.92;96269.66;5038403;28;20205;-74
2022/03/04 02:43:45;;;;;;;5.80;2.93;;;;;;;-1.15;68.61;96261.06;5037867;28;20256;-74
2022/03/04 02:46:13;;;;;;;2.90;2.60;;;;;;;-1.26;68.69;96265.34;5038327;28;20201;-73
2022/03/04 02:48:39;;;;;;;5.00;2.50;;;;;;;-1.26;68.97;96267.94;5038066;28;20207;-74
2022/03/04 02:51:06;;;;;;;1.53;1.33;;;;;;;-1.18;68.75;96263.88;5038845;28;20567;-72
2022/03/04 02:53:33;;;;;;;2.63;2.30;;;;;;;-1.22;67.88;96265.03;5037107;28;20949;-73
2022/03/04 02:55:59;;;;;;;3.37;3.07;;;;;;;-1.16;67.51;96264.59;5038223;28;20223;-72
2022/03/04 02:58:27;;;;;;;2.33;1.90;;;;;;;-0.95;67.96;96263.09;5038093;28;20205;-72
2022/03/04 03:00:54;;;;;;;1.67;1.57;;;;;;;-1.18;68.12;96260.47;5037980;28;20202;-72
2022/03/04 03:03:20;;;;;;;1.93;1.83;;;;;;;-1.23;67.22;96256.53;5037345;28;20232;-73
2022/03/04 03:05:47;;;;;;;2.03;1.57;;;;;;;-1.28;66.82;96254.28;5038080;28;20216;-72
2022/03/04 03:08:13;;;;;;;8.33;2.57;;;;;;;-1.42;68.39;96251.00;5037629;28;20205;-72
2022/03/04 03:10:40;;;;;;;2.93;2.40;;;;;;;-1.42;67.73;96256.16;5037782;28;20680;-72
2022/03/04 03:13:06;;;;;;;3.67;1.93;;;;;;;-1.43;67.95;96250.16;5037386;28;20217;-72
2022/03/04 03:15:34;;;;;;;5.77;2.97;;;;;;;-1.35;67.76;96257.38;5037419;28;20374;-72
2022/03/04 03:18:01;;;;;;;2.23;1.63;;;;;;;-1.59;66.62;96256.47;5037408;28;20219;-72
2022/03/04 03:20:27;;;;;;;4.30;3.03;;;;;;;-1.60;67.62;96262.59;5038438;28;20197;-72
2022/03/04 03:22:54;;;;;;;8.07;2.83;;;;;;;-1.67;68.72;96259.59;5036384;28;20693;-72
2022/03/04 03:25:20;;;;;;;3.37;2.57;;;;;;;-1.60;67.50;96262.59;5036509;28;20201;-72
2022/03/04 03:27:47;;;;;;;2.77;1.80;;;;;;;-1.66;67.53;96263.00;5034253;28;20211;-72
2022/03/04 03:30:14;;;;;;;2.00;1.87;;;;;;;-1.53;67.42;96256.88;5037614;28;20464;-72
2022/03/04 03:32:42;;;;;;;6.37;4.43;;;;;;;-1.40;68.28;96254.28;5037380;28;20286;-73
2022/03/04 03:35:09;;;;;;;4.97;1.63;;;;;;;-1.56;68.72;96253.69;5037804;28;20213;-72
2022/03/04 03:37:36;;;;;;;9.00;3.17;;;;;;;-1.72;67.99;96259.06;5037411;28;20213;-72
2022/03/04 03:40:03;;;;;;;2.23;1.67;;;;;;;-1.71;68.09;96255.53;5037029;28;20212;-72
2022/03/04 03:42:29;;;;;;;3.50;2.23;;;;;;;-1.95;68.70;96266.69;5037206;28;20332;-73
2022/03/04 03:44:56;;;;;;;4.60;1.90;;;;;;;-1.77;69.01;96260.28;5037194;28;20247;-72
2022/03/04 03:47:22;;;;;;;2.30;2.10;;;;;;;-1.78;69.87;96263.81;5037230;28;20202;-72
2022/03/04 03:49:50;;;;;;;3.27;2.50;;;;;;;-1.55;69.34;96268.28;5037604;28;20209;-73
2022/03/04 03:52:17;;;;;;;1.87;1.67;;;;;;;-1.81;69.70;96274.34;5036711;28;20217;-72
2022/03/04 03:54:43;;;;;;;3.67;2.23;;;;;;;-1.69;69.54;96268.38;5036613;28;20216;-73
2022/03/04 03:57:10;;;;;;;13.27;2.70;;;;;;;-1.75;69.60;96277.34;5037049;28;20207;-73
2022/03/04 03:59:37;;;;;;;1.50;1.40;;;;;;;-1.77;69.63;96275.78;5037037;28;20208;-72
2022/03/04 04:02:04;;;;;;;2.50;2.30;;;;;;;-1.73;69.78;96278.06;5037197;28;20221;-72
2022/03/04 04:04:34;;;;;;;2.37;2.17;;;;;;;-1.92;69.61;96273.41;5036554;28;20227;-72
2022/03/04 04:07:02;;;;;;;3.37;2.70;;;;;;;-1.74;69.08;96273.84;5036736;28;20201;-72
2022/03/04 04:09:29;;;;;;;4.63;2.53;;;;;;;-1.80;69.34;96268.25;5036761;28;20201;-72
2022/03/04 04:11:55;;;;;;;4.53;2.33;;;;;;;-1.77;69.42;96276.63;5036727;28;20384;-72
2022/03/04 04:14:22;;;;;;;14.23;2.30;;;;;;;-2.08;69.22;96280.53;5036610;28;20760;-72
2022/03/04 04:16:48;;;;;;;1.57;1.47;;;;;;;-1.99;68.83;96279.91;5036962;28;20452;-72
2022/03/04 04:19:15;;;;;;;2.37;2.17;;;;;;;-1.87;68.85;96282.53;5036527;28;20212;-72
2022/03/04 04:21:41;;;;;;;2.13;2.00;;;;;;;-1.86;68.94;96289.31;5036456;28;20574;-72
2022/03/04 04:24:09;;;;;;;9.40;3.47;;;;;;;-1.88;68.85;96293.78;5035952;28;20480;-72
2022/03/04 04:26:36;;;;;;;1.57;1.47;;;;;;;-2.04;68.99;96303.44;5036685;28;20213;-72
2022/03/04 04:29:03;;;;;;;3.87;1.93;;;;;;;-2.02;69.65;96301.59;5037483;28;20266;-72
2022/03/04 04:31:31;;;;;;;3.43;2.93;;;;;;;-2.04;69.67;96302.63;5036537;28;20207;-72
2022/03/04 04:33:57;;;;;;;3.53;1.60;;;;;;;-2.09;70.06;96310.66;5035289;28;20204;-72
2022/03/04 04:36:24;;;;;;;1.37;1.27;;;;;;;-2.03;70.30;96312.03;5036694;28;20224;-72
2022/03/04 04:38:50;;;;;;;3.20;2.20;;;;;;;-1.96;70.45;96315.84;5037533;28;20215;-72
2022/03/04 04:41:19;;;;;;;3.33;2.23;;;;;;;-1.89;70.60;96307.59;5036493;28;20200;-73
2022/03/04 04:43:45;;;;;;;2.13;2.03;;;;;;;-1.85;70.15;96310.81;5035422;28;20228;-72
2022/03/04 04:46:12;;;;;;;2.30;1.63;;;;;;;-1.79;70.39;96313.81;5036228;28;20216;-72
2022/03/04 04:48:39;;;;;;;5.60;2.63;;;;;;;-1.68;70.55;96309.59;5036539;28;20216;-72
2022/03/04 04:51:06;;;;;;;16.20;2.80;;;;;;;-1.58;70.53;96307.22;5036119;28;20385;-72
2022/03/04 04:53:34;;;;;;;6.90;2.83;;;;;;;-1.55;70.26;96317.34;5035597;28;20235;-72
2022/03/04 04:56:00;;;;;;;4.53;2.63;;;;;;;-1.53;69.54;96320.66;5036333;28;20208;-72
2022/03/04 04:58:29;;;;;;;5.37;2.97;;;;;;;-1.41;69.34;96315.50;5036079;28;20204;-72
2022/03/04 05:00:56;;;;;;;2.50;2.27;;;;;;;-1.81;71.26;96320.81;5035970;28;20204;-72
2022/03/04 05:03:22;;;;;;;3.60;2.80;;;;;;;-1.63;71.07;96319.59;5035433;28;20231;-73
2022/03/04 05:05:49;;;;;;;5.67;2.63;;;;;;;-1.53;70.50;96330.97;5035314;28;20662;-72
2022/03/04 05:08:16;;;;;;;1.10;1.10;;;;;;;-1.54;70.29;96324.16;5035771;28;20711;-72
2022/03/04 05:10:43;;;;;;;14.87;2.77;;;;;;;-1.56;70.33;96331.19;5036334;28;20401;-73
2022/03/04 05:13:11;;;;;;;3.37;2.70;;;;;;;-1.49;70.51;96319.50;5035305;28;20388;-72
2022/03/04 05:15:39;;;;;;;14.80;3.93;;;;;;;-1.42;69.74;96328.53;5035667;28;20950;-73
2022/03/04 05:18:06;;;;;;;5.07;3.37;;;;;;;-1.60;69.18;96332.34;5036098;28;20376;-72
2022/03/04 05:20:32;;;;;;;4.73;2.13;;;;;;;-1.76;69.27;96334.25;5036023;28;20210;-73
2022/03/04 05:22:59;;;;;;;1.40;1.30;;;;;;;-1.80;69.70;96335.41;5034726;28;20927;-72
2022/03/04 05:25:25;;;;;;;3.17;2.90;;;;;;;-1.79;69.70;96339.66;5035862;28;20219;-72
2022/03/04 05:27:52;;;;;;;4.20;3.10;;;;;;;-1.86;69.88;96338.38;5035806;28;20201;-73
2022/03/04 05:30:18;;;;;;;9.43;3.30;;;;;;;-1.74;70.88;96333.25;5035605;28;20201;-73
2022/03/04 05:32:46;;;;;;;2.07;1.87;;;;;;;-1.58;70.90;96338.22;5035118;28;20229;-72
2022/03/04 05:35:13;;;;;;;11.27;3.37;;;;;;;-1.85;70.05;96340.03;5035582;28;20404;-72
2022/03/04 05:37:40;;;;;;;8.40;2.87;;;;;;;-1.85;68.50;96342.63;5035675;28;20204;-72
2022/03/04 05:40:07;;;;;;;6.10;2.53;;;;;;;-1.79;69.54;96342.22;5036376;28;20206;-71
2022/03/04 05:42:34;;;;;;;2.20;2.10;;;;;;;-1.94;68.82;96339.81;5035573;28;20227;-71
2022/03/04 05:45:00;;;;;;;6.17;2.37;;;;;;;-2.00;69.99;96346.19;5036486;28;20228;-73
2022/03/04 05:47:27;;;;;;;5.13;3.83;;;;;;;-1.90;70.81;96342.09;5036190;28;20201;-71
2022/03/04 05:49:55;;;;;;;1.53;1.43;;;;;;;-1.84;71.00;96346.03;5038071;28;20201;-71
2022/03/04 05:52:22;;;;;;;2.80;2.23;;;;;;;-1.90;70.43;96352.41;5039080;28;20225;-72
2022/03/04 05:54:48;;;;;;;8.67;3.03;;;;;;;-1.89;69.93;96353.25;5041204;28;20277;-71
2022/03/04 05:57:15;;;;;;;2.60;2.13;;;;;;;-1.88;70.71;96358.31;5039645;28;20199;-72
2022/03/04 05:59:47;;;;;;;4.10;2.63;;;;;;;-1.61;70.48;96359.09;5040288;28;20207;-72
2022/03/04 06:02:14;;;;;;;1.53;1.27;;;;;;;-1.85;70.45;96365.03;5038917;28;20794;-72
2022/03/04 06:04:40;;;;;;;2.63;2.03;;;;;;;-1.82;70.43;96361.31;5039858;28;20259;-72
2022/03/04 06:07:08;;;;;;;4.03;3.43;;;;;;;-1.70;70.25;96367.44;5039788;28;20201;-72
2022/03/04 06:09:34;;;;;;;3.67;2.83;;;;;;;-1.92;69.58;96367.19;5039763;28;20212;-72
2022/03/04 06:12:01;;;;;;;5.47;3.60;;;;;;;-1.94;71.99;96375.97;5039459;28;20233;-72
2022/03/04 06:14:27;;;;;;;2.67;2.23;;;;;;;-1.97;72.71;96366.66;5038934;28;20211;-72
2022/03/04 06:16:54;;;;;;;2.40;1.53;;;;;;;-1.84;73.40;96367.53;5039889;28;20217;-72
2022/03/04 06:19:21;;;;;;;8.37;3.17;;;;;;;-1.72;73.41;96371.88;5039187;28;20209;-72
2022/03/04 06:21:47;;;;;;;3.47;2.87;;;;;;;-1.64;72.88;96372.22;5038965;28;20231;-72
2022/03/04 06:24:15;;;;;;;11.73;4.47;;;;;;;-1.47;72.85;96371.94;5039314;28;20217;-72
2022/03/04 06:26:42;;;;;;;3.07;2.03;;;;;;;-1.53;72.16;96367.97;5039261;28;20233;-72
2022/03/04 06:29:08;;;;;;;2.57;2.37;;;;;;;-1.39;71.90;96374.81;5039888;28;20205;-71
2022/03/04 06:31:35;;;;;;;6.20;4.03;;;;;;;-1.36;71.77;96377.19;5039180;28;20229;-71
2022/03/04 06:34:01;;;;;;;4.00;2.20;;;;;;;-1.28;71.23;96374.94;5038733;28;20202;-70
2022/03/04 06:36:28;;;;;;;3.13;2.40;;;;;;;-1.25;71.55;96366.97;5039566;28;20211;-70
2022/03/04 06:38:54;;;;;;;8.40;4.03;;;;;;;-1.17;71.75;96375.88;5039815;28;20252;-71
2022/03/04 06:41:22;;;;;;;15.83;2.93;;;;;;;-0.91;71.70;96377.50;5038465;28;20204;-70
2022/03/04 06:43:49;;;;;;;5.40;3.30;;;;;;;-1.10;71.11;96383.09;5037620;28;20506;-70
2022/03/04 06:46:15;;;;;;;7.47;3.17;;;;;;;-0.96;71.58;96382.97;5038689;28;20374;-70
2022/03/04 06:48:42;;;;;;;6.00;3.80;;;;;;;-0.88;71.68;96382.47;5038900;28;20199;-71
2022/03/04 06:51:09;;;;;;;11.53;2.60;;;;;;;-0.66;71.54;96383.47;5038083;28;20554;-70
2022/03/04 06:53:35;;;;;;;3.63;2.77;;;;;;;-0.57;71.47;96378.47;5037955;28;20229;-71
2022/03/04 06:56:02;;;;;;;8.63;2.73;;;;;;;-0.43;70.98;96390.47;5038863;28;20209;-70
2022/03/04 06:58:30;;;;;;;6.43;3.00;;;;;;;-0.22;71.45;96394.13;5038610;28;20204;-70
2022/03/04 07:00:58;;;;;;;3.97;3.50;;;;;;;-0.02;71.43;96388.34;5037620;28;20209;-70
2022/03/04 07:03:24;;;;;;;6.47;2.87;;;;;;;-0.02;70.24;96396.13;5037217;28;20750;-70
2022/03/04 07:05:51;;;;;;;8.67;4.10;;;;;;;0.11;71.05;96393.34;5037591;28;20232;-70
2022/03/04 07:08:17;;;;;;;4.50;4.10;;;;;;;0.22;70.09;96395.19;5037937;28;20472;-70
2022/03/04 07:10:44;;;;;;;5.93;2.73;;;;;;;0.06;70.23;96399.81;5038368;28;20877;-71
2022/03/04 07:13:11;;;;;;;1.83;1.73;;;;;;;0.27;69.74;96399.09;5036801;28;20224;-70
2022/03/04 07:15:39;;;;;;;11.73;4.53;;;;;;;0.32;69.80;96402.16;5037390;28;20201;-71
2022/03/04 07:18:06;;;;;;;3.00;2.53;;;;;;;0.30;69.16;96398.84;5038118;28;20216;-71
2022/03/04 07:20:33;;;;;;;12.80;2.77;;;;;;;0.42;69.84;96404.91;5038974;28;20202;-71
2022/03/04 07:23:00;;;;;;;14.47;4.80;;;;;;;0.46;70.01;96403.75;5037111;28;20225;-71
2022/03/04 07:25:27;;;;;;;7.07;3.97;;;;;;;0.56;69.59;96395.19;5037547;28;20286;-70
2022/03/04 07:27:53;;;;;;;2.83;2.63;;;;;;;0.63;69.50;96398.97;5038028;28;20216;-71
2022/03/04 07:30:20;;;;;;;8.50;4.40;;;;;;;0.71;69.63;96405.25;5037919;28;20693;-70
2022/03/04 07:32:49;;;;;;;7.40;2.33;;;;;;;0.92;70.51;96410.63;5036343;28;20221;-70
2022/03/04 07:35:15;;;;;;;9.60;4.80;;;;;;;1.00;69.55;96411.66;5037587;28;20586;-70
2022/03/04 07:37:43;;;;;;;5.60;3.87;;;;;;;1.16;68.55;96406.16;5037550;28;20704;-70
2022/03/04 07:40:11;;;;;;;7.63;2.67;;;;;;;1.07;68.88;96399.91;5037159;28;20204;-71
2022/03/04 07:42:38;;;;;;;6.83;4.33;;;;;;;1.11;69.17;96408.25;5036507;28;20269;-71
2022/03/04 07:45:06;;;;;;;5.30;3.13;;;;;;;1.16;68.50;96411.34;5037465;28;20235;-71
2022/03/04 07:47:33;;;;;;;3.87;3.33;;;;;;;1.46;68.37;96413.22;5037369;28;20197;-71
2022/03/04 07:50:01;;;;;;;8.90;4.10;;;;;;;1.56;68.55;96415.97;5037607;28;20696;-71
2022/03/04 07:52:31;;;;;;;5.43;3.97;;;;;;;1.42;67.86;96413.59;5036513;28;20232;-71
2022/03/04 07:54:58;;;;;;;5.17;3.30;;;;;;;1.31;67.96;96423.97;5037075;28;20259;-71
2022/03/04 07:57:24;;;;;;;3.10;2.73;;;;;;;1.59;67.40;96421.75;5036648;28;20203;-71
2022/03/04 07:59:51;;;;;;;10.73;3.83;;;;;;;1.65;67.44;96426.47;5037027;28;20205;-71
2022/03/04 08:02:17;;;;;;;8.63;4.23;;;;;;;1.83;66.45;96420.66;5036599;28;20221;-70
2022/03/04 08:04:45;;;;;;;8.27;5.10;;;;;;;1.85;66.67;96423.16;5036614;28;20711;-71
2022/03/04 08:07:14;;;;;;;9.97;4.73;;;;;;;2.37;67.32;96420.63;5036912;28;20201;-71
2022/03/04 08:09:40;;;;;;;7.80;4.43;;;;;;;2.13;66.98;96427.81;5036790;28;20241;-71
2022/03/04 08:12:09;;;;;;;10.23;5.30;;;;;;;2.25;66.52;96432.84;5035997;28;20635;-71
2022/03/04 08:14:35;;;;;;;7.83;4.60;;;;;;;2.36;66.09;96427.63;5036426;28;20660;-70
2022/03/04 08:17:02;;;;;;;3.30;2.90;;;;;;;2.36;64.13;96432.03;5036751;28;20212;-71
2022/03/04 08:19:28;;;;;;;15.30;5.80;;;;;;;2.35;64.73;96432.97;5036612;28;20573;-71
2022/03/04 08:21:55;;;;;;;9.43;4.17;;;;;;;2.61;63.85;96422.94;5036440;28;20225;-71
2022/03/04 08:24:23;;;;;;;7.67;4.43;;;;;;;2.86;63.66;96434.75;5035812;28;20238;-70
2022/03/04 08:26:49;;;;;;;7.47;3.57;;;;;;;2.75;64.17;96435.63;5036808;28;20200;-70
2022/03/04 08:29:16;;;;;;;12.03;5.10;;;;;;;2.79;63.73;96431.00;5036458;28;20692;-72
2022/03/04 08:31:42;;;;;;;8.40;4.20;;;;;;;2.82;62.49;96436.78;5036051;28;20229;-70
2022/03/04 08:34:09;;;;;;;10.50;4.90;;;;;;;2.63;62.86;96434.03;5036599;28;20721;-70
2022/03/04 08:36:35;;;;;;;7.10;4.33;;;;;;;2.74;63.11;96433.97;5036374;28;20238;-71
2022/03/04 08:39:03;;;;;;;7.83;4.23;;;;;;;3.02;64.03;96435.97;5035883;28;20345;-71
2022/03/04 08:41:32;;;;;;;12.07;4.33;;;;;;;3.24;61.86;96433.25;5036516;28;20201;-70
2022/03/04 08:43:58;;;;;;;12.33;4.10;;;;;;;2.79;63.03;96444.84;5035685;28;20205;-70
2022/03/04 08:46:25;;;;;;;12.90;4.13;;;;;;;2.76;63.48;96439.06;5036449;28;20228;-72
2022/03/04 08:48:52;;;;;;;3.43;2.27;;;;;;;3.17;63.05;96439.88;5035980;28;20213;-71
2022/03/04 08:51:22;;;;;;;6.37;4.17;;;;;;;3.32;62.60;96436.84;5035959;28;20233;-70
2022/03/04 08:53:48;;;;;;;9.87;4.20;;;;;;;3.22;61.67;96435.13;5035425;28;20208;-71
2022/03/04 08:56:15;;;;;;;17.00;5.60;;;;;;;3.44;63.70;96438.41;5036591;28;20197;-71
2022/03/04 08:58:42;;;;;;;9.00;4.43;;;;;;;3.48;61.12;96452.03;5035956;28;20484;-70
2022/03/04 09:01:09;;;;;;;4.97;4.03;;;;;;;3.46;60.89;96441.72;5035613;28;20591;-72
2022/03/04 09:03:35;;;;;;;12.93;4.63;;;;;;;3.56;60.98;96441.78;5035421;28;20228;-71
2022/03/04 09:06:02;;;;;;;12.63;5.70;;;;;;;3.76;60.55;96449.53;5035812;28;20955;-70
2022/03/04 09:08:28;;;;;;;7.23;3.40;;;;;;;3.91;60.76;96443.84;5035965;28;20204;-71
2022/03/04 09:10:55;;;;;;;7.53;4.60;;;;;;;4.11;59.70;96440.34;5035780;28;20217;-71
2022/03/04 09:13:22;;;;;;;23.47;4.77;;;;;;;4.42;58.06;96437.53;5035591;28;20256;-71
2022/03/04 09:15:50;;;;;;;5.73;3.00;;;;;;;4.34;57.63;96433.94;5035522;28;20681;-71
2022/03/04 09:18:16;;;;;;;7.40;3.87;;;;;;;4.29;57.23;96430.94;5035251;28;20303;-72
2022/03/04 09:20:43;;;;;;;11.33;4.40;;;;;;;4.36;56.92;96429.41;5035765;28;20205;-71
2022/03/04 09:23:10;;;;;;;15.87;5.47;;;;;;;4.31;57.17;96434.19;5037056;28;20225;-72
2022/03/04 09:25:37;;;;;;;9.67;3.90;;;;;;;4.59;57.54;96428.22;5039833;28;20225;-71
2022/03/04 09:28:04;;;;;;;11.37;5.07;;;;;;;4.81;54.42;96425.31;5039888;28;20212;-71
2022/03/04 09:30:33;;;;;;;15.03;5.17;;;;;;;4.81;55.13;96420.09;5040097;28;20204;-71
2022/03/04 09:33:01;;;;;;;5.93;3.03;;;;;;;4.68;55.36;96415.16;5038699;28;20657;-71
2022/03/04 09:35:27;;;;;;;5.57;3.30;;;;;;;5.16;52.39;96408.94;5039908;28;20193;-72
2022/03/04 09:37:54;;;;;;;6.43;3.13;;;;;;;5.37;50.85;96416.59;5040040;28;20209;-71
2022/03/04 09:40:21;;;;;;;10.87;4.73;;;;;;;5.32;50.82;96417.03;5039520;28;20193;-71
2022/03/04 09:42:47;;;;;;;11.13;5.33;;;;;;;5.31;51.59;96425.84;5038717;28;20228;-71
2022/03/04 09:45:14;;;;;;;15.73;5.43;;;;;;;5.23;51.78;96424.88;5040013;28;20224;-70
2022/03/04 09:47:43;;;;;;;11.83;4.80;;;;;;;5.55;50.48;96420.97;5039814;28;20611;-71
2022/03/04 09:50:13;;;;;;;8.27;4.40;;;;;;;5.87;49.45;96424.84;5039501;28;20208;-71
2022/03/04 09:52:40;;;;;;;10.40;4.60;;;;;;;5.76;49.15;96427.63;5039177;28;20256;-72
2022/03/04 09:55:07;;;;;;;9.60;5.03;;;;;;;5.94;49.01;96425.09;5039896;28;20894;-72
2022/03/04 09:57:34;;;;;;;12.27;5.40;;;;;;;6.03;47.54;96419.00;5039076;28;20467;-71
2022/03/04 10:00:00;;;;;;;18.20;7.03;;;;;;;5.89;49.86;96422.09;5039413;28;20205;-72
2022/03/04 10:02:27;;;;;;;13.07;4.33;;;;;;;5.90;48.39;96423.75;5039044;28;20228;-71
2022/03/04 10:05:00;;;;;;;11.43;4.83;;;;;;;5.76;48.98;96425.03;5038331;28;20244;-71
2022/03/04 10:07:38;;;;;;;15.63;4.57;;;;;;;5.89;47.74;96420.28;5039290;28;20197;-72
2022/03/04 10:10:10;;;;;;;15.03;5.57;;;;;;;6.44;46.81;96407.06;5039359;28;20251;-72
2022/03/04 10:12:47;;;;;;;10.93;4.97;;;;;;;6.65;45.97;96412.03;5037647;28;20251;-70
2022/03/04 10:15:14;;;;;;;23.10;6.10;;;;;;;6.65;46.17;96406.78;5039230;28;20251;-72
2022/03/04 10:17:41;;;;;;;32.80;9.07;;;;;;;6.80;45.39;96408.72;5038955;28;20645;-72
2022/03/04 10:20:12;;;;;;;31.47;10.07;;;;;;;6.77;45.63;96409.00;5038418;28;20741;-72
2022/03/04 10:22:44;;;;;;;13.63;6.33;;;;;;;6.78;45.71;96410.66;5037968;28;20235;-72
2022/03/04 10:25:20;;;;;;;21.03;5.43;;;;;;;6.94;45.13;96405.59;5038558;28;20225;-72
2022/03/04 10:27:47;;;;;;;13.93;5.23;;;;;;;6.45;44.64;96403.44;5038831;28;20201;-71
2022/03/04 10:30:14;;;;;;;14.93;4.87;;;;;;;6.70;44.27;96406.16;5039259;28;20205;-72
2022/03/04 10:32:41;;;;;;;13.10;5.40;;;;;;;6.99;45.20;96396.28;5038266;28;20281;-71
2022/03/04 10:35:10;;;;;;;15.30;5.27;;;;;;;7.47;42.58;96402.72;5037752;28;20201;-72
2022/03/04 10:37:43;;;;;;;12.87;5.40;;;;;;;7.26;43.95;96408.47;5038738;28;20551;-73
2022/03/04 10:40:15;;;;;;;9.53;4.93;;;;;;;6.87;43.94;96404.53;5038692;28;20204;-72
2022/03/04 10:42:45;;;;;;;10.93;4.33;;;;;;;6.78;44.30;96402.81;5037923;28;20231;-72
2022/03/04 10:45:14;;;;;;;12.17;5.47;;;;;;;7.13;43.61;96401.00;5038603;28;20655;-72
2022/03/04 10:47:44;;;;;;;11.70;4.60;;;;;;;7.49;43.41;96400.75;5038502;28;20205;-71
2022/03/04 10:50:11;;;;;;;10.20;5.10;;;;;;;7.55;43.10;96399.31;5038755;28;20197;-72
2022/03/04 10:52:50;;;;;;;13.53;5.37;;;;;;;8.17;41.98;96403.28;5037902;28;20221;-71
2022/03/04 10:55:31;;;;;;;15.73;5.87;;;;;;;8.09;42.66;96394.50;5038304;28;20201;-72
2022/03/04 10:57:58;;;;;;;17.13;5.47;;;;;;;8.01;42.68;96395.28;5038735;28;20208;-71
2022/03/04 11:00:26;;;;;;;14.37;4.70;;;;;;;7.42;39.86;96402.34;5037738;28;20197;-73
2022/03/04 11:02:54;;;;;;;5.87;3.57;;;;;;;7.42;42.67;96402.34;5037604;28;20422;-72
2022/03/04 11:05:21;;;;;;;18.60;5.20;;;;;;;7.99;42.25;96404.28;5038285;28;20351;-72
2022/03/04 11:07:49;;;;;;;16.17;6.07;;;;;;;8.02;41.90;96393.50;5038212;28;20603;-72
2022/03/04 11:10:17;;;;;;;10.60;4.90;;;;;;;7.85;42.42;96394.38;5038071;28;20197;-71
2022/03/04 11:12:45;;;;;;;13.10;5.33;;;;;;;8.13;39.78;96393.22;5037216;28;20827;-72
2022/03/04 11:15:13;;;;;;;17.40;5.63;;;;;;;8.41;39.92;96379.72;5037526;28;20981;-71
2022/03/04 11:17:40;;;;;;;17.63;5.97;;;;;;;8.30;40.57;96376.56;5037955;28;20513;-71
2022/03/04 11:20:08;;;;;;;18.20;5.93;;;;;;;8.43;40.71;96375.13;5038447;28;20587;-72
2022/03/04 11:22:39;;;;;;;21.07;4.80;;;;;;;8.40;41.20;96372.84;5037680;28;20339;-71
2022/03/04 11:25:10;;;;;;;10.80;4.23;;;;;;;8.66;39.92;96376.16;5037840;28;20282;-72
2022/03/04 11:27:42;;;;;;;9.97;4.43;;;;;;;8.30;40.48;96368.69;5038062;28;20217;-72
2022/03/04 11:30:27;;;;;;;18.73;5.53;;;;;;;7.80;41.00;96380.09;5037682;28;20216;-72
2022/03/04 11:33:00;;;;;;;15.20;7.13;;;;;;;8.45;39.85;96367.91;5036842;28;20671;-72
2022/03/04 11:35:49;;;;;;;12.00;4.07;;;;;;;8.99;37.83;96367.34;5037605;28;20208;-72